METAR Data
IDs: Format: Raw Decoded Include TAF

Data at: 0238 UTC 25 Jan 2020

PAMO 250202Z AUTO 36016G24KT 9SM CLR M22/M24 A3012 RMK AO2 PK WND 01032/0106 SNE0141 SLP216 P0000 T12221244 FZRANO
PAMO 250121Z AUTO 36020G30KT 3SM BR CLR M22/M24 A3011 RMK AO2 PK WND 01032/0106 SNE18 P0000 FZRANO
PAMO 250102Z AUTO 36023G30KT 1 3/4SM -SN CLR M22/M25 A3010 RMK AO2 PK WND 36030/0102 SLP208 P0000 T12221250 FZRANO
PAMO 250020Z AUTO 36023G28KT 2SM -SN CLR M22/M24 A3010 RMK AO2 PK WND 36028/0020 P0000 FZRANO
PAMO 250002Z AUTO 36022G28KT 4SM -SN BR CLR M22/M24 A3011 RMK AO2 PK WND 36028/0000 SNE2332B2355 SLP209 P0000 60000 T12221244 11211 21244 58012 FZRANO
PAMO 242302Z AUTO 36017G25KT 4SM -SN BR CLR M22/M24 A3012 RMK AO2 PK WND 35026/2219 SNE2235B2259 SLP214 P0000 T12221244 FZRANO
PAMO 242202Z AUTO 36018KT 5SM -SN BR CLR M22/M24 A3014 RMK AO2 SNE2114B2143 SLP222 P0000 T12171239 FZRANO
PAMO 242102Z AUTO 01021KT 5SM -SN BR CLR M22/M24 A3015 RMK AO2 PK WND 01028/2051 SNB2006 SLP222 P0000 60000 T12221244 53002 FZRANO
PAMO 242027Z AUTO 35018KT 3SM -SN BR CLR M24/M27 A3015 RMK AO2 SNB06 P0000 FZRANO
PAMO 242015Z AUTO 35016KT 2 1/2SM -SN BR CLR M24/M27 A3016 RMK AO2 SNB06 P0000 FZRANO
PAMO 242002Z AUTO 36014G20KT 5SM HZ FEW003 M24/M27 A3016 RMK AO2 SNE1955 SLP227 P0000 T12391267 FZRANO
PAMO 241955Z AUTO 01013G20KT 4SM BR FEW003 M24/M26 A3016 RMK AO2 SNE55 P0000 FZRANO
PAMO 241932Z 36017G24KT 1 1/4SM -SN BR OVC003 M23/M26 A3016
PAMO 241836Z AUTO 01015KT 2SM -SN BR SCT003 M24/M27 A3015 RMK AO2 P0000 FZRANO
PAMO 241823Z AUTO 36017KT 3SM -SN BR SCT003 M24/M27 A3015 RMK AO2 P0000 FZRANO
PAMO 241820Z AUTO 36017KT 2 1/2SM -SN BR BKN003 M24/M27 A3015 RMK AO2 P0000 FZRANO
PAMO 241811Z AUTO 36015KT 1 3/4SM -SN BR BKN003 M24/M27 A3016 RMK AO2 P0000 FZRANO
PAMO 241740Z AUTO 03013KT 1 3/4SM -SN BR BKN003 M25/M27 A3016 RMK AO2 P0000 FZRANO
PAMO 241732Z AUTO 02015KT 2 1/2SM -SN BR SCT003 M26/M28 A3016 RMK AO2 P0000 FZRANO
PAMO 241702Z AUTO 34009KT 4SM -SN CLR M24/M27 A3017 RMK AO2 SNB00 SLP229 P0000 T12441272 FZRANO
PAMO 241602Z AUTO 36015G21KT 10SM CLR M24/M26 A3015 RMK AO2 SLP221 T12391256 FZRANO
PAMO 241502Z AUTO 35012KT 10SM CLR M24/M27 A3015 RMK AO2 SLP221 60000 T12441267 56008 FZRANO
PAMO 241302Z AUTO 36013KT 10SM CLR M23/M26 A3015 RMK AO2 SLP222 T12331256 FZRANO
PAMO 241202Z AUTO 36017KT 10SM CLR M22/M24 A3016 RMK AO2 SNB1118E1134 SLP224 P0000 60000 T12171239 11167 21222 58001 FZRANO
PAMO 241102Z AUTO 36017KT 10SM CLR M22/M24 A3017 RMK AO2 SNE1048 SLP227 P0000 T12171239 FZRANO
PAMO 241002Z AUTO 01015KT 9SM -SN CLR M22/M24 A3017 RMK AO2 SNB0959 SLP229 P0000 T12171239 FZRANO
PAMO 240902Z AUTO 01014KT 10SM CLR M21/M23 A3017 RMK AO2 SLP230 60000 T12061228 53001 FZRANO
PAMO 240802Z AUTO 35011KT 10SM CLR M19/M22 A3017 RMK AO2 SLP229 T11941217 411941194 FZRANO
PAMO 240702Z AUTO 35015KT 10SM CLR M18/M20 A3016 RMK AO2 SNB0647E0656 SLP226 P0000 T11781200 FZRANO
PAMO 240650Z AUTO 35015G22KT 10SM -SN SCT013 M18/M19 A3016 RMK AO2 SNB47 P0000 FZRANO
PAMO 240630Z AUTO 35017KT 10SM BKN013 M18/M19 A3016 RMK AO2 FZRANO
PAMO 240623Z AUTO 36016G22KT 10SM BKN015 M17/M19 A3016 RMK AO2 FZRANO
PAMO 240602Z AUTO 36014KT 10SM FEW018 M17/M19 A3017 RMK AO2 SNE0527 SLP227 P0000 60000 T11671189 11150 21167 50002 FZRANO
PAMO 240558Z AUTO 36013KT 10SM SCT018 M17/M18 A3017 RMK AO2 SNE27 P0000 FZRANO
PAMO 240502Z AUTO 34011KT 9SM -SN OVC016 M16/M17 A3017 RMK AO2 P0000 FZRANO
PAMO 240353Z AUTO 35011KT 9SM -SN SCT005 BKN014 M16/M17 A3016 RMK AO2 P0000 FZRANO
PAMO 240326Z AUTO 34010KT 9SM -SN BKN005 OVC012 M16/M17 A3016 RMK AO2 P0000 FZRANO
PAMO 240318Z AUTO 35009KT 9SM SCT005 OVC012 M16/M17 A3016 RMK AO2 SNE18 P0000 FZRANO
PAMO 240302Z AUTO 36007KT 9SM -SN OVC010 M16/M17 A3016 RMK AO2 SLP225 P0000 60000 T11561172 53003 FZRANO
PAMO 240241Z AUTO 34008KT 9SM -SN BKN010 OVC033 M16/M18 A3015 RMK AO2 P0000 FZRANO
PAMO 240202Z AUTO 35009KT 9SM -SN SCT033 M16/M18 A3014 RMK AO2 SNE0124B0145 SLP218 P0000 T11611183 FZRANO
PAMO 240120Z AUTO 35006KT 9SM -SN SCT008 M15/M17 A3014 RMK AO2 P0000 FZRANO
PAMO 240102Z AUTO 35011KT 9SM -SN OVC008 M15/M17 A3013 RMK AO2 P0000 FZRANO
PAMO 240029Z AUTO 34008KT 9SM -SN OVC010 M14/M16 A3013 RMK AO2 CIG 008V014 P0000 FZRANO
PAMO 240002Z AUTO 33011KT 9SM -SN OVC008 M14/M16 A3013 RMK AO2 SLP215 P0000 60000 T11441161 11144 21161 53013 FZRANO
PAMO 232302Z AUTO 34011KT 9SM -SN OVC006 M15/M17 A3014 RMK AO2 SLP216 P0000 T11501167 FZRANO
PAMO 232202Z AUTO 34011KT 6SM -SN BR OVC006 M16/M17 A3013 RMK AO2 SLP213 P0000 T11561172 FZRANO
PAMO 232102Z AUTO 32015KT 7SM -SN OVC006 M16/M18 A3010 RMK AO2 SNB2022 SLP204 P0000 60000 T11611178 53013 FZRANO
PAMO 232002Z AUTO 34012KT 10SM OVC008 M16/M17 A3010 RMK AO2 SNE1951 SLP204 P0000 T11561172 FZRANO
PAMO 231925Z AUTO 34011KT 9SM -SN OVC008 M16/M17 A3009 RMK AO2 P0000 FZRANO
PAMO 231802Z AUTO 32012KT 9SM -SN OVC014 M16/M17 A3007 RMK AO2 SLP193 P0000 60000 T11561172 11156 21161 51012 FZRANO
PAMO 231702Z AUTO 32009KT 9SM -SN OVC014 M16/M17 A3006 RMK AO2 SLP190 P0000 T11561172 FZRANO
PAMO 231602Z AUTO 30005KT 9SM -SN OVC014 M16/M18 A3006 RMK AO2 SLP190 P0000 T11611178 FZRANO
PAMO 231520Z AUTO 35008KT 10SM OVC014 M16/M18 A3005 RMK AO2 SNE08 P0000 FZRANO
PAMO 231502Z AUTO 33011KT 9SM -SN OVC016 M16/M18 A3004 RMK AO2 SLP184 P0000 60000 T11611178 51014 FZRANO